Time;durP1;ratioP1;P1;durP2;ratioP2;P2;SDS_P1;SDS_P2;PMS_P1;PMS_P2;Temp;Humidity;BMP_temperature;BMP_pressure;BME280_temperature;BME280_humidity;BME280_pressure;Samples;Min_cycle;Max_cycle;Signal;HPM_P1;HPM_P2
2022/11/05 15:08:52;;;;;;;;;;;10.70;99.90;;;;;;4890413;29;20018;-79
2022/11/05 15:11:31;;;;;;;;;;;10.70;99.90;;;;;;4863930;29;19927;-75
2022/11/05 15:17:50;;;;;;;;;;;;;;;;;;;;;
2022/11/05 15:20:48;;;;;;;;;;;10.60;99.90;;;;;;4862367;29;20049;-73
2022/11/05 15:23:25;;;;;;;;;;;10.50;99.90;;;;;;4849616;29;20300;-73
2022/11/05 15:26:14;;;;;;;;;;;10.50;99.90;;;;;;4850951;29;19919;-73
2022/11/05 15:28:46;;;;;;;;;;;10.50;99.90;;;;;;4865530;29;20107;-75
2022/11/05 15:31:12;;;;;;;;;;;10.50;99.90;;;;;;4852606;29;19923;-73
2022/11/05 15:33:38;;;;;;;;;;;10.50;99.90;;;;;;4867666;29;20261;-72
2022/11/05 15:36:30;;;;;;;;;;;10.50;99.90;;;;;;4867242;29;20476;-73
2022/11/05 15:38:56;;;;;;;;;;;10.40;99.90;;;;;;4881327;29;19969;-72
2022/11/05 15:41:33;;;;;;;;;;;10.40;99.90;;;;;;4865295;29;19984;-72
2022/11/05 15:43:59;;;;;;;;;;;10.40;99.90;;;;;;4849842;29;19931;-71
2022/11/05 15:46:29;;;;;;;;;;;10.40;99.90;;;;;;4858900;29;19927;-67
2022/11/05 15:49:05;;;;;;;;;;;10.30;99.90;;;;;;4861709;29;20389;-72
2022/11/05 15:51:31;;;;;;;;;;;10.30;99.90;;;;;;4852117;29;20014;-71
2022/11/05 15:54:20;;;;;;;;;;;10.30;99.90;;;;;;4882547;29;19970;-71
2022/11/05 15:56:48;;;;;;;;;;;10.20;99.90;;;;;;4867670;29;19942;-72
2022/11/05 15:59:21;;;;;;;;;;;10.20;99.90;;;;;;4882516;29;19959;-73
2022/11/05 16:01:47;;;;;;;;;;;10.20;99.90;;;;;;4877248;29;19923;-72
2022/11/05 16:04:27;;;;;;;;;;;10.20;99.90;;;;;;4849298;29;19920;-72
2022/11/05 16:06:56;;;;;;;;;;;10.20;99.90;;;;;;4850063;29;19936;-72
2022/11/05 16:09:26;;;;;;;;;;;10.20;99.90;;;;;;4864443;29;20266;-72
2022/11/05 16:12:10;;;;;;;;;;;10.10;99.90;;;;;;4869992;29;19930;-73
2022/11/05 16:14:36;;;;;;;;;;;10.10;99.90;;;;;;4866998;29;19919;-73
2022/11/05 16:17:26;;;;;;;;;;;10.10;99.90;;;;;;4855978;29;19924;-73
2022/11/05 16:19:55;;;;;;;;;;;10.00;99.90;;;;;;4849321;29;20022;-73
2022/11/05 16:22:23;;;;;;;;;;;10.00;99.90;;;;;;4858408;29;20021;-74
2022/11/05 16:24:49;;;;;;;;;;;9.90;99.90;;;;;;4867139;29;19977;-70
2022/11/05 16:27:16;;;;;;;;;;;9.90;99.90;;;;;;4854352;29;19955;-71
2022/11/05 16:29:47;;;;;;;;;;;9.70;99.90;;;;;;4848235;29;19970;-71
2022/11/05 16:32:17;;;;;;;;;;;9.90;99.90;;;;;;4856607;29;20381;-72
2022/11/05 16:35:12;;;;;;;;;;;9.90;99.90;;;;;;4867194;29;19927;-71
2022/11/05 16:37:44;;;;;;;;;;;9.90;99.90;;;;;;4849554;29;19972;-72
2022/11/05 16:40:38;;;;;;;;;;;10.00;99.90;;;;;;4864058;29;19920;-73
2022/11/05 16:43:18;;;;;;;;;;;10.00;99.90;;;;;;4846198;29;19919;-73
2022/11/05 16:45:44;;;;;;;;;;;10.10;99.90;;;;;;4869830;29;20300;-72
2022/11/05 16:48:17;;;;;;;;;;;10.00;99.90;;;;;;4866959;29;20017;-71
2022/11/05 16:50:45;;;;;;;;;;;10.00;99.90;;;;;;4882542;29;19923;-71
2022/11/05 16:53:11;;;;;;;;;;;10.00;99.90;;;;;;4851135;29;20258;-71
2022/11/05 16:55:41;;;;;;;;;;;10.00;99.90;;;;;;4875908;29;19926;-71
2022/11/05 16:58:14;;;;;;;;;;;10.10;99.90;;;;;;4858654;29;19919;-71
2022/11/05 17:00:51;;;;;;;;;;;10.00;99.90;;;;;;4866815;29;19927;-71
2022/11/05 17:03:38;;;;;;;;;;;10.10;99.90;;;;;;4866380;29;19928;-71
2022/11/05 17:06:10;;;;;;;;;;;9.90;99.90;;;;;;4855854;29;19919;-71
2022/11/05 17:09:02;;;;;;;;;;;10.10;99.90;;;;;;4841640;29;19920;-71
2022/11/05 17:11:28;;;;;;;;;;;10.00;99.90;;;;;;4827520;29;19936;-68
2022/11/05 17:13:55;;;;;;;;;;;10.00;99.90;;;;;;4845097;29;19925;-68
2022/11/05 17:16:37;;;;;;;;;;;10.00;99.90;;;;;;4862036;29;19921;-71
2022/11/05 17:19:12;;;;;;;;;;;10.00;99.90;;;;;;4834124;29;19920;-73
2022/11/05 17:21:55;;;;;;;;;;;;;;;;;;;;;
2022/11/05 17:27:21;;;;;;;;;;;9.90;99.90;;;;;;4864008;29;19919;-71
2022/11/05 17:29:47;;;;;;;;;;;9.90;99.90;;;;;;4870097;29;19920;-72
2022/11/05 17:32:12;;;;;;;;;;;9.80;99.90;;;;;;4886065;29;19975;-71
2022/11/05 17:34:39;;;;;;;;;;;9.90;99.90;;;;;;4873125;29;19920;-71
2022/11/05 17:37:04;;;;;;;;;;;9.90;99.90;;;;;;4882087;29;19971;-74
2022/11/05 17:39:30;;;;;;;;;;;9.80;99.90;;;;;;4851645;29;20313;-72
2022/11/05 17:41:56;;;;;;;;;;;9.90;99.90;;;;;;4883344;29;19944;-72
2022/11/05 17:44:21;;;;;;;;;;;9.90;99.90;;;;;;4851383;29;20358;-71
2022/11/05 17:46:58;;;;;;;;;;;9.80;99.90;;;;;;4852942;29;19984;-72
2022/11/05 17:49:32;;;;;;;;;;;9.80;99.90;;;;;;4869852;29;19919;-72
2022/11/05 17:52:04;;;;;;;;;;;9.80;99.90;;;;;;4869546;29;19984;-71
2022/11/05 17:54:29;;;;;;;;;;;9.80;99.90;;;;;;4868414;29;19924;-72
2022/11/05 17:57:17;;;;;;;;;;;9.90;99.90;;;;;;4883596;29;21952;-71
2022/11/05 18:00:01;;;;;;;;;;;9.80;99.90;;;;;;4854273;29;19920;-72
2022/11/05 18:02:32;;;;;;;;;;;9.90;99.90;;;;;;4866839;29;19931;-72
2022/11/05 18:05:20;;;;;;;;;;;9.90;99.90;;;;;;4882916;29;19919;-71
2022/11/05 18:07:49;;;;;;;;;;;9.90;99.90;;;;;;4860956;29;20264;-71
2022/11/05 18:10:17;;;;;;;;;;;9.90;99.90;;;;;;4862111;29;19998;-71
2022/11/05 18:12:46;;;;;;;;;;;9.90;99.90;;;;;;4854584;29;19972;-76
2022/11/05 18:15:42;;;;;;;;;;;9.90;99.90;;;;;;4868796;29;19920;-73
2022/11/05 18:55:18;;;;;;;;;;;10.00;99.90;;;;;;5459240;23;20365;-71
2022/11/05 18:58:09;;;;;;;;;;;10.00;99.90;;;;;;4899781;29;20010;-75
2022/11/05 19:00:37;;;;;;;;;;;10.00;99.90;;;;;;4866979;29;19919;-71
2022/11/05 19:03:04;;;;;;;;;;;10.00;99.90;;;;;;4861560;29;20349;-71
2022/11/05 19:05:29;;;;;;;;;;;10.00;99.90;;;;;;4875895;29;20381;-70
2022/11/05 19:07:55;;;;;;;;;;;10.00;99.90;;;;;;4849666;29;19942;-71
2022/11/05 19:10:21;;;;;;;;;;;10.10;99.90;;;;;;4856374;29;20280;-71
2022/11/05 19:12:46;;;;;;;;;;;10.00;99.90;;;;;;4885117;29;19926;-70
2022/11/05 19:15:15;;;;;;;;;;;10.00;99.90;;;;;;4877520;29;19939;-71
2022/11/05 19:17:40;;;;;;;;;;;10.00;99.90;;;;;;4870251;29;19991;-71
2022/11/05 19:20:06;;;;;;;;;;;10.00;99.90;;;;;;4867274;29;19924;-73
2022/11/05 19:23:11;;;;;;;;;;;10.10;99.90;;;;;;4875288;29;19924;-74
2022/11/05 19:26:05;;;;;;;;;;;10.10;99.90;;;;;;4838101;29;20330;-76
2022/11/05 19:28:34;;;;;;;;;;;10.10;99.90;;;;;;4858439;29;19928;-74
2022/11/05 19:31:10;;;;;;;;;;;10.10;99.90;;;;;;4850390;29;20354;-71
2022/11/05 19:33:36;;;;;;;;;;;10.10;99.90;;;;;;4854564;29;19927;-72
2022/11/05 19:36:05;;;;;;;;;;;10.10;99.90;;;;;;4878338;29;19919;-72
2022/11/05 19:38:31;;;;;;;;;;;9.90;99.90;;;;;;4864824;29;20424;-71
2022/11/05 19:40:56;;;;;;;;;;;10.10;99.90;;;;;;4864436;29;19919;-71
2022/11/05 19:43:22;;;;;;;;;;;10.10;99.90;;;;;;4859326;29;19927;-71
2022/11/05 19:45:48;;;;;;;;;;;10.10;99.90;;;;;;4882124;29;19923;-71
2022/11/05 19:48:13;;;;;;;;;;;10.10;99.90;;;;;;4863755;29;19924;-72
2022/11/05 19:50:41;;;;;;;;;;;10.10;99.90;;;;;;4859667;29;19920;-72
2022/11/05 19:53:07;;;;;;;;;;;10.20;99.90;;;;;;4886309;29;19927;-72
2022/11/05 19:55:33;;;;;;;;;;;10.10;99.90;;;;;;4864881;29;19930;-71
2022/11/05 19:58:01;;;;;;;;;;;10.20;99.90;;;;;;4865547;29;19920;-72
2022/11/05 20:00:27;;;;;;;;;;;10.10;99.90;;;;;;4855267;29;20011;-71
2022/11/05 20:02:52;;;;;;;;;;;10.10;99.90;;;;;;4862745;29;20007;-72
2022/11/05 20:05:18;;;;;;;;;;;10.20;99.90;;;;;;4864263;29;20020;-72
2022/11/05 20:07:44;;;;;;;;;;;10.20;99.90;;;;;;4894411;29;19923;-71
2022/11/05 20:10:09;;;;;;;;;;;10.20;99.90;;;;;;4876876;29;19932;-70
2022/11/05 20:12:35;;;;;;;;;;;10.20;99.90;;;;;;4860303;29;19927;-68
2022/11/05 20:15:02;;;;;;;;;;;10.20;99.90;;;;;;4889481;29;19951;-68
2022/11/05 20:17:28;;;;;;;;;;;10.20;99.90;;;;;;4890405;29;19929;-68
2022/11/05 20:19:54;;;;;;;;;;;10.20;99.90;;;;;;4892000;29;19919;-68
2022/11/05 20:22:19;;;;;;;;;;;10.20;99.90;;;;;;4880992;29;19919;-71
2022/11/05 20:24:45;;;;;;;;;;;10.50;99.90;;;;;;4853155;29;19926;-74
2022/11/05 20:27:11;;;;;;;;;;;10.20;99.90;;;;;;4855881;29;19924;-72
2022/11/05 20:29:39;;;;;;;;;;;10.30;99.90;;;;;;4874505;29;20433;-72
2022/11/05 20:32:05;;;;;;;;;;;10.20;99.90;;;;;;4859020;29;19920;-71
2022/11/05 20:34:34;;;;;;;;;;;10.20;99.90;;;;;;4858606;29;19934;-79
2022/11/05 20:37:00;;;;;;;;;;;10.20;99.90;;;;;;4877994;29;20373;-71
2022/11/05 20:39:26;;;;;;;;;;;10.20;99.90;;;;;;4873908;29;19923;-71
2022/11/05 20:49:14;;;;;;;;;;;10.20;99.90;;;;;;4890832;29;19928;-75
2022/11/05 20:55:48;;;;;;;;;;;10.10;99.90;;;;;;4800926;29;19924;-74
2022/11/05 20:59:04;;;;;;;;;;;;;;;;;;;;;
2022/11/05 21:05:34;;;;;;;;;;;10.20;99.90;;;;;;4763185;30;20398;-74
2022/11/05 21:14:46;;;;;;;;;;;10.20;99.90;;;;;;4805448;29;19928;-71
2022/11/05 21:17:37;;;;;;;;;;;;;;;;;;;;;
2022/11/05 21:20:35;;;;;;;;;;;10.30;99.90;;;;;;4839490;29;20409;-72
2022/11/05 21:23:54;;;;;;;;;;;;;;;;;;;;;
2022/11/05 21:46:36;;;;;;;;;;;10.20;99.90;;;;;;4795359;29;19928;-74
2022/11/05 21:49:02;;;;;;;;;;;10.20;99.90;;;;;;4797578;29;19929;-76
2022/11/05 22:02:10;;;;;;;;;;;10.30;99.90;;;;;;4722923;30;19976;-73
2022/11/05 22:04:56;;;;;;;;;;;;;;;;;;;;;
2022/11/05 22:13:25;;;;;;;;;;;10.40;99.90;;;;;;4774099;29;20398;-74
2022/11/05 22:16:20;;;;;;;;;;;10.40;99.90;;;;;;4837344;29;19968;-72
2022/11/05 22:19:23;;;;;;;;;;;;;;;;;;;;;
2022/11/05 22:22:09;;;;;;;;;;;10.30;99.90;;;;;;4812831;29;19921;-73
2022/11/05 22:25:31;;;;;;;;;;;10.40;99.90;;;;;;4821371;29;19921;-73
2022/11/05 22:31:05;;;;;;;;;;;10.50;99.90;;;;;;4808671;29;20001;-72
2022/11/05 22:33:36;;;;;;;;;;;10.40;99.90;;;;;;4809444;29;20439;-75
2022/11/05 23:00:10;;;;;;;;;;;;;;;;;;;;;
2022/11/05 23:03:05;;;;;;;;;;;;;;;;;;;;;
